createdAt,value
2017-09-25T00:00:05.334Z,42.68
2017-09-25T00:01:14.353Z,42.77
2017-09-25T00:02:23.686Z,42.77
2017-09-25T00:03:32.701Z,42.68
2017-09-25T00:04:42.064Z,42.87
2017-09-25T00:05:51.399Z,42.77
2017-09-25T00:07:00.413Z,42.97
2017-09-25T00:08:09.431Z,42.87
2017-09-25T00:09:18.763Z,42.87
2017-09-25T00:10:27.782Z,42.87
2017-09-25T00:11:36.796Z,43.16
2017-09-25T00:12:45.491Z,42.77
2017-09-25T00:13:54.506Z,42.77
2017-09-25T00:15:03.203Z,43.26
2017-09-25T00:16:12.226Z,43.06
2017-09-25T00:17:21.241Z,43.06
2017-09-25T00:18:30.257Z,42.77
2017-09-25T00:19:38.952Z,43.06
2017-09-25T00:20:48.284Z,42.68
2017-09-25T00:21:57.298Z,42.68
2017-09-25T00:23:06.315Z,42.58
2017-09-25T00:24:15.342Z,42.97
2017-09-25T00:25:25.318Z,42.97
2017-09-25T00:26:34.331Z,42.68
2017-09-25T00:27:43.026Z,43.16
2017-09-25T00:28:52.684Z,43.06
2017-09-25T00:30:01.701Z,42.77
2017-09-25T00:31:10.715Z,42.97
2017-09-25T00:32:19.729Z,42.97
2017-09-25T00:33:29.700Z,43.06
2017-09-25T00:34:39.997Z,43.06
2017-09-25T00:35:48.691Z,42.77
2017-09-25T00:36:58.026Z,42.75
2017-09-25T00:38:07.369Z,42.77
2017-09-25T00:39:16.387Z,42.97
2017-09-25T00:40:25.723Z,43.16
2017-09-25T00:41:34.744Z,43.16
2017-09-25T00:42:43.438Z,42.68
2017-09-25T00:43:52.774Z,42.87
2017-09-25T00:45:01.793Z,42.58
2017-09-25T00:46:10.809Z,42.85
2017-09-25T00:47:19.505Z,42.87
2017-09-25T00:48:28.203Z,42.87
2017-09-25T00:49:37.216Z,42.66
2017-09-25T00:50:46.235Z,42.68
2017-09-25T00:51:54.933Z,42.94
2017-09-25T00:53:04.272Z,42.66
2017-09-25T00:54:13.286Z,42.56
2017-09-25T00:55:22.616Z,42.85
2017-09-25T00:56:31.634Z,42.94
2017-09-25T00:57:41.288Z,42.94
2017-09-25T00:58:50.301Z,42.66
2017-09-25T00:59:59.317Z,42.94
2017-09-25T01:01:08.977Z,42.58
2017-09-25T01:02:17.992Z,42.87
2017-09-25T01:03:26.687Z,42.85
2017-09-25T01:04:36.661Z,43.04
2017-09-25T01:05:46.000Z,42.94
2017-09-25T01:06:55.655Z,42.94
2017-09-25T01:08:04.672Z,42.75
2017-09-25T01:09:14.010Z,43.14
2017-09-25T01:10:22.706Z,43.16
2017-09-25T01:11:32.042Z,42.66
2017-09-25T01:12:41.055Z,42.56
2017-09-25T01:13:50.385Z,43.14
2017-09-25T01:14:59.719Z,42.85
2017-09-25T01:16:08.735Z,42.75
2017-09-25T01:17:18.075Z,43.24
2017-09-25T01:18:26.772Z,42.94
2017-09-25T01:19:36.426Z,42.94
2017-09-25T01:20:45.765Z,43.14
2017-09-25T01:21:55.099Z,43.14
2017-09-25T01:23:04.115Z,43.14
2017-09-25T01:24:13.450Z,43.04
2017-09-25T01:25:22.468Z,42.94
2017-09-25T01:26:31.164Z,43.14
2017-09-25T01:27:40.501Z,42.94
2017-09-25T01:28:49.518Z,43.24
2017-09-25T01:29:59.177Z,43.14
2017-09-25T01:31:08.192Z,43.14
2017-09-25T01:32:17.210Z,43.24
2017-09-25T01:33:26.222Z,43.33
2017-09-25T01:34:35.877Z,42.94
2017-09-25T01:35:44.570Z,42.94
2017-09-25T01:36:53.582Z,43.14
2017-09-25T01:38:03.241Z,43.14
2017-09-25T01:39:12.255Z,43.24
2017-09-25T01:40:21.269Z,43.14
2017-09-25T01:41:30.612Z,43.14
2017-09-25T01:42:39.621Z,43.33
2017-09-25T01:43:48.315Z,43.04
2017-09-25T01:44:57.009Z,43.24
2017-09-25T01:46:06.024Z,43.33
2017-09-25T01:47:15.036Z,43.43
2017-09-25T01:48:24.051Z,43.43
2017-09-25T01:49:32.745Z,43.52
2017-09-25T01:50:41.760Z,43.33
2017-09-25T01:51:50.775Z,43.52
2017-09-25T01:52:59.790Z,43.52
2017-09-25T01:54:08.804Z,43.33
2017-09-25T01:55:17.824Z,43.43
2017-09-25T01:56:26.516Z,43.43
2017-09-25T01:57:35.529Z,43.43
2017-09-25T01:58:44.545Z,43.43
2017-09-25T01:59:53.879Z,43.52
2017-09-25T02:01:02.898Z,43.43
2017-09-25T02:02:11.593Z,43.62
2017-09-25T02:03:20.291Z,43.24
2017-09-25T02:04:29.945Z,43.33
2017-09-25T02:05:39.599Z,43.52
2017-09-25T02:06:48.614Z,43.52
2017-09-25T02:07:58.264Z,43.33
2017-09-25T02:09:06.960Z,43.24
2017-09-25T02:10:16.626Z,43.81
2017-09-25T02:11:25.320Z,43.33
2017-09-25T02:12:34.333Z,43.43
2017-09-25T02:13:43.351Z,43.43
2017-09-25T02:14:52.362Z,43.52
2017-09-25T02:16:01.377Z,43.52
2017-09-25T02:17:10.712Z,43.91
2017-09-25T02:18:19.733Z,43.91
2017-09-25T02:19:28.754Z,43.72
2017-09-25T02:20:37.768Z,43.91
2017-09-25T02:21:47.104Z,43.91
2017-09-25T02:22:55.801Z,43.91
2017-09-25T02:24:05.137Z,43.81
2017-09-25T02:25:14.476Z,43.62
2017-09-25T02:26:23.811Z,43.81
2017-09-25T02:27:32.505Z,44.1
2017-09-25T02:28:41.838Z,44.1
2017-09-25T02:29:51.171Z,43.62
2017-09-25T02:31:00.187Z,44.1
2017-09-25T02:32:09.209Z,44.1
2017-09-25T02:33:18.866Z,44.2
2017-09-25T02:34:28.201Z,43.81
2017-09-25T02:35:37.535Z,43.81
2017-09-25T02:36:47.193Z,44.2
2017-09-25T02:37:56.209Z,44.1
2017-09-25T02:39:05.228Z,43.62
2017-09-25T02:40:14.574Z,43.91
2017-09-25T02:41:23.912Z,43.91
2017-09-25T02:42:32.925Z,43.81
2017-09-25T02:43:41.942Z,43.91
2017-09-25T02:44:51.278Z,44.01
2017-09-25T02:46:00.938Z,43.62
2017-09-25T02:47:10.591Z,44.01
2017-09-25T02:48:19.930Z,43.81
2017-09-25T02:49:29.266Z,43.81
2017-09-25T02:50:37.958Z,43.91
2017-09-25T02:51:46.972Z,43.62
2017-09-25T02:52:56.629Z,44.39
2017-09-25T02:54:05.980Z,43.81
2017-09-25T02:55:15.318Z,43.72
2017-09-25T02:56:24.017Z,43.72
2017-09-25T02:57:33.035Z,43.89
2017-09-25T02:58:42.052Z,43.89
2017-09-25T02:59:51.069Z,43.89
2017-09-25T03:00:59.764Z,43.79
2017-09-25T03:02:09.100Z,43.98
2017-09-25T03:03:18.111Z,44.37
2017-09-25T03:04:27.128Z,43.91
2017-09-25T03:05:36.460Z,44.37
2017-09-25T03:06:45.155Z,44.18
2017-09-25T03:07:54.166Z,43.79
2017-09-25T03:09:02.860Z,43.72
2017-09-25T03:10:11.559Z,43.7
2017-09-25T03:11:20.574Z,44.08
2017-09-25T03:12:29.271Z,44.18
2017-09-25T03:13:38.611Z,44.37
2017-09-25T03:14:48.305Z,43.98
2017-09-25T03:15:57.001Z,43.98
2017-09-25T03:17:06.658Z,43.98
2017-09-25T03:18:15.674Z,43.98
2017-09-25T03:19:24.689Z,43.89
2017-09-25T03:20:33.706Z,44.08
2017-09-25T03:21:42.402Z,44.18
2017-09-25T03:22:51.737Z,43.98
2017-09-25T03:24:01.072Z,44.08
2017-09-25T03:25:10.085Z,44.08
2017-09-25T03:26:19.417Z,44.18
2017-09-25T03:27:28.757Z,44.08
2017-09-25T03:28:37.775Z,44.08
2017-09-25T03:29:47.432Z,44.08
2017-09-25T03:30:56.124Z,43.89
2017-09-25T03:32:05.468Z,44.08
2017-09-25T03:33:15.121Z,44.27
2017-09-25T03:34:24.136Z,43.98
2017-09-25T03:35:33.155Z,43.98
2017-09-25T03:36:41.852Z,44.37
2017-09-25T03:37:51.187Z,44.27
2017-09-25T03:39:00.519Z,43.98
2017-09-25T03:40:09.534Z,43.89
2017-09-25T03:41:18.227Z,44.18
2017-09-25T03:42:27.240Z,43.89
2017-09-25T03:43:35.937Z,43.98
2017-09-25T03:44:44.632Z,44.08
2017-09-25T03:45:53.648Z,44.37
2017-09-25T03:47:02.345Z,43.89
2017-09-25T03:48:11.361Z,43.89
2017-09-25T03:49:20.695Z,43.89
2017-09-25T03:50:29.717Z,43.7
2017-09-25T03:51:39.050Z,43.89
2017-09-25T03:52:48.384Z,43.6
2017-09-25T03:53:57.397Z,43.7
2017-09-25T03:55:06.093Z,43.89
2017-09-25T03:56:14.792Z,43.89
2017-09-25T03:57:23.494Z,43.7
2017-09-25T03:58:32.826Z,43.72
2017-09-25T03:59:41.843Z,43.98
2017-09-25T04:00:50.537Z,43.81
2017-09-25T04:01:59.553Z,43.72
2017-09-25T04:03:08.565Z,43.72
2017-09-25T04:04:17.262Z,43.91
2017-09-25T04:05:25.956Z,43.81
2017-09-25T04:06:35.610Z,43.81
2017-09-25T04:07:45.266Z,43.52
2017-09-25T04:08:54.278Z,43.62
2017-09-25T04:10:03.293Z,43.52
2017-09-25T04:11:12.947Z,43.33
2017-09-25T04:12:21.643Z,43.52
2017-09-25T04:13:30.337Z,43.43
2017-09-25T04:14:39.032Z,43.52
2017-09-25T04:15:48.047Z,43.91
2017-09-25T04:16:56.742Z,43.62
2017-09-25T04:18:05.762Z,43.43
2017-09-25T04:19:15.735Z,43.33
2017-09-25T04:20:25.068Z,43.33
2017-09-25T04:21:34.088Z,43.52
2017-09-25T04:22:42.780Z,43.43
2017-09-25T04:23:51.475Z,43.33
2017-09-25T04:25:01.446Z,43.33
2017-09-25T04:26:11.141Z,43.43
2017-09-25T04:27:20.155Z,43.43
2017-09-25T04:28:29.170Z,43.43
2017-09-25T04:29:37.867Z,43.33
2017-09-25T04:30:46.564Z,43.24
2017-09-25T04:31:55.902Z,43.24
2017-09-25T04:33:05.554Z,43.52
2017-09-25T04:34:14.890Z,43.33
2017-09-25T04:35:24.220Z,43.43
2017-09-25T04:36:32.922Z,43.52
2017-09-25T04:37:42.263Z,43.24
2017-09-25T04:38:50.960Z,43.33
2017-09-25T04:39:59.655Z,43.33
2017-09-25T04:41:08.988Z,43.14
2017-09-25T04:42:18.642Z,43.24
2017-09-25T04:43:27.336Z,43.24
2017-09-25T04:44:36.060Z,43.14
2017-09-25T04:45:45.045Z,43.24
2017-09-25T04:46:54.698Z,43.14
2017-09-25T04:48:04.352Z,43.43
2017-09-25T04:49:14.006Z,43.24
2017-09-25T04:50:23.022Z,43.04
2017-09-25T04:51:32.038Z,43.14
2017-09-25T04:52:41.060Z,43.14
2017-09-25T04:53:50.077Z,43.04
2017-09-25T04:54:59.410Z,43.24
2017-09-25T04:56:08.424Z,43.24
2017-09-25T04:57:17.439Z,43.04
2017-09-25T04:58:26.776Z,43.24
2017-09-25T04:59:36.437Z,43.24
2017-09-25T05:00:45.776Z,43.04
2017-09-25T05:01:55.109Z,43.14
2017-09-25T05:03:04.763Z,43.04
2017-09-25T05:04:13.779Z,43.04
2017-09-25T05:05:23.115Z,43.04
2017-09-25T05:06:32.450Z,43.14
2017-09-25T05:07:41.467Z,43.04
2017-09-25T05:08:50.169Z,43.04
2017-09-25T05:09:59.506Z,43.24
2017-09-25T05:11:08.201Z,43.04
2017-09-25T05:12:16.898Z,43.35
2017-09-25T05:13:25.915Z,43.24
2017-09-25T05:14:35.251Z,43.24
2017-09-25T05:15:44.583Z,42.97
2017-09-25T05:16:54.237Z,43.06
2017-09-25T05:18:03.584Z,42.94
2017-09-25T05:19:12.598Z,42.85
2017-09-25T05:20:21.934Z,42.94
2017-09-25T05:21:30.947Z,42.77
2017-09-25T05:22:39.650Z,42.68
2017-09-25T05:23:48.349Z,43.04
2017-09-25T05:24:57.046Z,43.16
2017-09-25T05:26:05.737Z,43.16
2017-09-25T05:27:14.752Z,43.35
2017-09-25T05:28:23.446Z,43.24
2017-09-25T05:29:33.103Z,43.04
2017-09-25T05:30:42.119Z,43.24
2017-09-25T05:31:50.813Z,42.94
2017-09-25T05:32:59.828Z,43.04
2017-09-25T05:34:08.843Z,42.94
2017-09-25T05:35:18.178Z,42.94
2017-09-25T05:36:27.513Z,43.14
2017-09-25T05:37:36.537Z,42.97
2017-09-25T05:38:46.193Z,43.04
2017-09-25T05:39:55.211Z,43.16
2017-09-25T05:41:05.524Z,43.24
2017-09-25T05:42:14.538Z,43.04
2017-09-25T05:43:23.235Z,43.16
2017-09-25T05:44:32.568Z,43.06
2017-09-25T05:45:42.236Z,42.97
2017-09-25T05:46:51.571Z,42.97
2017-09-25T05:48:00.908Z,42.94
2017-09-25T05:49:09.603Z,42.87
2017-09-25T05:50:18.619Z,43.16
2017-09-25T05:51:27.954Z,42.77
2017-09-25T05:52:36.648Z,42.68
2017-09-25T05:53:45.664Z,42.97
2017-09-25T05:54:54.679Z,42.77
2017-09-25T05:56:04.016Z,42.97
2017-09-25T05:57:13.350Z,43.06
2017-09-25T05:58:22.364Z,42.77
2017-09-25T05:59:31.059Z,43.04
2017-09-25T06:00:40.077Z,42.77
2017-09-25T06:01:49.418Z,42.97
2017-09-25T06:02:59.071Z,43.16
2017-09-25T06:04:08.405Z,42.77
2017-09-25T06:05:17.417Z,42.77
2017-09-25T06:06:26.433Z,43.26
2017-09-25T06:07:35.767Z,42.68
2017-09-25T06:08:45.105Z,42.97
2017-09-25T06:09:54.439Z,42.58
2017-09-25T06:11:03.138Z,43.24
2017-09-25T06:12:11.843Z,42.58
2017-09-25T06:13:20.855Z,42.97
2017-09-25T06:14:29.872Z,43.06
2017-09-25T06:15:39.535Z,42.87
2017-09-25T06:16:48.867Z,42.87
2017-09-25T06:17:57.560Z,42.94
2017-09-25T06:19:06.894Z,43.06
2017-09-25T06:20:16.232Z,42.87
2017-09-25T06:21:25.247Z,42.68
2017-09-25T06:22:34.589Z,42.87
2017-09-25T06:23:44.564Z,42.97
2017-09-25T06:24:53.898Z,42.68
2017-09-25T06:26:02.592Z,42.87
2017-09-25T06:27:11.291Z,43.16
2017-09-25T06:28:20.627Z,43.35
2017-09-25T06:29:29.642Z,42.77
2017-09-25T06:30:38.335Z,42.68
2017-09-25T06:31:47.032Z,42.58
2017-09-25T06:32:56.373Z,42.87
2017-09-25T06:34:05.390Z,42.77
2017-09-25T06:35:14.724Z,42.68
2017-09-25T06:36:23.418Z,42.68
2017-09-25T06:37:32.113Z,42.97
2017-09-25T06:38:41.765Z,42.77
2017-09-25T06:39:50.784Z,42.77
2017-09-25T06:41:00.120Z,42.97
2017-09-25T06:42:09.135Z,42.87
2017-09-25T06:43:18.147Z,42.97
2017-09-25T06:44:27.482Z,42.58
2017-09-25T06:45:37.135Z,42.77
2017-09-25T06:46:46.470Z,42.68
2017-09-25T06:47:55.809Z,42.79
2017-09-25T06:49:04.824Z,42.77
2017-09-25T06:50:14.156Z,42.79
2017-09-25T06:51:24.135Z,42.87
2017-09-25T06:52:33.151Z,42.48
2017-09-25T06:53:42.490Z,43.08
2017-09-25T06:54:51.184Z,42.97
2017-09-25T06:56:00.519Z,42.29
2017-09-25T06:57:09.534Z,42.29
2017-09-25T06:58:18.550Z,42.12
2017-09-25T06:59:27.567Z,42.58
2017-09-25T07:00:36.585Z,42.7
2017-09-25T07:01:45.601Z,42.21
2017-09-25T07:02:54.937Z,42.6
2017-09-25T07:04:03.948Z,42.6
2017-09-25T07:05:12.962Z,42.6
2017-09-25T07:06:21.980Z,42.41
2017-09-25T07:07:31.003Z,42.6
2017-09-25T07:08:40.336Z,42.41
2017-09-25T07:09:49.673Z,42.5
2017-09-25T07:10:58.370Z,42.41
2017-09-25T07:12:07.068Z,42.5
2017-09-25T07:13:16.084Z,42.12
2017-09-25T07:14:25.422Z,42.21
2017-09-25T07:15:34.118Z,42.21
2017-09-25T07:16:43.132Z,42.31
2017-09-25T07:17:52.145Z,42.12
2017-09-25T07:19:01.204Z,42.02
2017-09-25T07:20:10.218Z,42.31
2017-09-25T07:21:19.233Z,42.21
2017-09-25T07:22:28.569Z,42.21
2017-09-25T07:23:37.266Z,42.02
2017-09-25T07:24:46.281Z,42.12
2017-09-25T07:25:55.613Z,42.02
2017-09-25T07:27:04.314Z,42.31
2017-09-25T07:28:13.011Z,41.83
2017-09-25T07:29:21.709Z,42.21
2017-09-25T07:30:30.723Z,41.93
2017-09-25T07:31:39.737Z,42.02
2017-09-25T07:32:49.073Z,41.93
2017-09-25T07:33:58.415Z,41.93
2017-09-25T07:35:07.759Z,41.83
2017-09-25T07:36:16.453Z,41.83
2017-09-25T07:37:25.790Z,41.73
2017-09-25T07:38:35.121Z,41.73
2017-09-25T07:39:44.135Z,41.83
2017-09-25T07:40:53.481Z,41.35
2017-09-25T07:42:02.496Z,42.02
2017-09-25T07:43:11.512Z,41.83
2017-09-25T07:44:20.850Z,41.83
2017-09-25T07:45:30.845Z,41.83
2017-09-25T07:46:39.864Z,41.83
2017-09-25T07:47:48.880Z,41.63
2017-09-25T07:48:57.896Z,41.54
2017-09-25T07:50:07.232Z,41.63
2017-09-25T07:51:16.257Z,41.54
2017-09-25T07:52:24.953Z,41.63
2017-09-25T07:53:33.648Z,41.73
2017-09-25T07:54:42.665Z,42.12
2017-09-25T07:55:52.001Z,41.63
2017-09-25T07:57:01.022Z,41.54
2017-09-25T07:58:10.359Z,41.54
2017-09-25T07:59:19.693Z,41.35
2017-09-25T08:00:28.706Z,41.15
2017-09-25T08:01:37.720Z,41.73
2017-09-25T08:02:47.378Z,41.94
2017-09-25T08:03:56.395Z,41.66
2017-09-25T08:05:05.089Z,41.56
2017-09-25T08:06:13.784Z,41.94
2017-09-25T08:07:22.804Z,41.56
2017-09-25T08:08:32.140Z,41.25
2017-09-25T08:09:40.832Z,42.31
2017-09-25T08:10:49.854Z,41.17
2017-09-25T08:11:58.871Z,41.05
2017-09-25T08:13:07.885Z,41.27
2017-09-25T08:14:16.900Z,41.27
2017-09-25T08:15:25.917Z,40.98
2017-09-25T08:16:35.253Z,40.98
2017-09-25T08:17:44.274Z,41.85
2017-09-25T08:18:53.286Z,41.36
2017-09-25T08:20:02.307Z,41.94
2017-09-25T08:21:11.645Z,41.85
2017-09-25T08:22:20.658Z,41.56
2017-09-25T08:23:29.674Z,41.46
2017-09-25T08:24:39.009Z,40.98
2017-09-25T08:25:48.673Z,40.42
2017-09-25T08:26:57.688Z,40.81
2017-09-25T08:28:06.388Z,41.09
2017-09-25T08:29:15.405Z,40.81
2017-09-25T08:30:25.703Z,39.94
2017-09-25T08:31:34.397Z,39.86
2017-09-25T08:32:43.732Z,39.86
2017-09-25T08:33:52.745Z,39.86
2017-09-25T08:35:01.769Z,39.67
2017-09-25T08:36:10.786Z,39.57
2017-09-25T08:37:19.803Z,39.76
2017-09-25T08:38:29.136Z,39.59
2017-09-25T08:39:38.470Z,39.49
2017-09-25T08:40:47.169Z,39.29
2017-09-25T08:41:56.184Z,39.59
2017-09-25T08:43:05.837Z,38.91
2017-09-25T08:44:15.822Z,39.01
2017-09-25T08:45:24.517Z,39.22
2017-09-25T08:46:33.854Z,38.93
2017-09-25T08:47:43.190Z,38.64
2017-09-25T08:48:52.847Z,38.73
2017-09-25T08:50:01.551Z,38.25
2017-09-25T08:51:10.895Z,38.54
2017-09-25T08:52:20.232Z,38.45
2017-09-25T08:53:29.888Z,38.25
2017-09-25T08:54:38.908Z,38.45
2017-09-25T08:55:48.243Z,38.35
2017-09-25T08:56:57.581Z,38.06
2017-09-25T08:58:06.595Z,38.06
2017-09-25T08:59:15.293Z,38.15
2017-09-25T09:00:23.991Z,38.15
2017-09-25T09:01:32.691Z,38.17
2017-09-25T09:02:41.706Z,37.79
2017-09-25T09:03:50.726Z,37.88
2017-09-25T09:04:59.741Z,37.79
2017-09-25T09:06:08.757Z,37.88
2017-09-25T09:07:18.093Z,37.88
2017-09-25T09:08:27.120Z,37.88
2017-09-25T09:09:36.135Z,37.49
2017-09-25T09:10:45.476Z,37.49
2017-09-25T09:11:54.813Z,37.4
2017-09-25T09:13:03.831Z,37.49
2017-09-25T09:14:13.172Z,37.49
2017-09-25T09:15:22.508Z,37.21
2017-09-25T09:16:32.173Z,37.21
2017-09-25T09:17:41.510Z,37.3
2017-09-25T09:18:50.845Z,37.69
2017-09-25T09:20:00.503Z,37.49
2017-09-25T09:21:10.161Z,37.49
2017-09-25T09:22:19.180Z,37.79
2017-09-25T09:23:28.521Z,37.59
2017-09-25T09:24:37.862Z,37.88
2017-09-25T09:25:46.878Z,37.59
2017-09-25T09:26:55.575Z,37.69
2017-09-25T09:28:04.592Z,37.79
2017-09-25T09:29:13.936Z,37.88
2017-09-25T09:30:23.602Z,37.88
2017-09-25T09:31:32.939Z,37.88
2017-09-25T09:32:42.273Z,37.88
2017-09-25T09:33:51.292Z,37.98
2017-09-25T09:35:00.308Z,38.07
2017-09-25T09:36:09.963Z,38.37
2017-09-25T09:37:19.622Z,38.45
2017-09-25T09:38:28.966Z,38.45
2017-09-25T09:39:37.996Z,38.45
2017-09-25T09:40:47.010Z,38.54
2017-09-25T09:41:56.028Z,38.64
2017-09-25T09:43:05.693Z,38.35
2017-09-25T09:44:15.354Z,38.15
2017-09-25T09:45:24.371Z,38.35
2017-09-25T09:46:33.385Z,38.54
2017-09-25T09:47:43.374Z,38.64
2017-09-25T09:48:52.392Z,38.64
2017-09-25T09:50:02.053Z,38.73
2017-09-25T09:51:11.070Z,39.03
2017-09-25T09:52:20.726Z,38.73
2017-09-25T09:53:29.742Z,39.12
2017-09-25T09:54:38.761Z,39.11
2017-09-25T09:55:48.098Z,39.12
2017-09-25T09:56:57.435Z,39.03
2017-09-25T09:58:06.451Z,39.11
2017-09-25T09:59:15.788Z,39.11
2017-09-25T10:00:25.123Z,39.11
2017-09-25T10:01:34.787Z,39.32
2017-09-25T10:02:44.126Z,39.12
2017-09-25T10:03:53.784Z,38.91
2017-09-25T10:05:03.119Z,38.91
2017-09-25T10:06:12.457Z,38.91
2017-09-25T10:07:21.153Z,39.29
2017-09-25T10:08:30.169Z,39.01
2017-09-25T10:09:39.504Z,39.11
2017-09-25T10:10:48.838Z,39.2
2017-09-25T10:11:57.855Z,39.2
2017-09-25T10:13:06.875Z,39.2
2017-09-25T10:14:15.572Z,39.39
2017-09-25T10:15:25.230Z,39.39
2017-09-25T10:16:34.249Z,39.39
2017-09-25T10:17:43.266Z,39.59
2017-09-25T10:18:52.610Z,39.49
2017-09-25T10:20:01.630Z,39.49
2017-09-25T10:21:10.321Z,39.78
2017-09-25T10:22:19.985Z,39.88
2017-09-25T10:23:28.682Z,39.49
2017-09-25T10:24:37.698Z,39.69
2017-09-25T10:25:47.036Z,39.49
2017-09-25T10:26:57.011Z,39.78
2017-09-25T10:28:06.676Z,39.88
2017-09-25T10:29:15.374Z,39.59
2017-09-25T10:30:24.391Z,39.88
2017-09-25T10:31:33.404Z,39.69
2017-09-25T10:32:42.418Z,39.78
2017-09-25T10:33:51.435Z,39.47
2017-09-25T10:35:00.136Z,39.69
2017-09-25T10:36:09.478Z,39.69
2017-09-25T10:37:18.493Z,39.78
2017-09-25T10:38:27.188Z,39.78
2017-09-25T10:39:37.175Z,39.59
2017-09-25T10:40:46.510Z,39.69
2017-09-25T10:41:56.165Z,39.69
2017-09-25T10:43:05.500Z,39.88
2017-09-25T10:44:14.844Z,39.69
2017-09-25T10:45:23.545Z,39.69
2017-09-25T10:46:32.884Z,39.78
2017-09-25T10:47:41.901Z,39.69
2017-09-25T10:48:50.915Z,39.67
2017-09-25T10:49:59.934Z,40.25
2017-09-25T10:51:09.268Z,40.05
2017-09-25T10:52:18.286Z,39.57
2017-09-25T10:53:26.982Z,39.95
2017-09-25T10:54:36.637Z,39.67
2017-09-25T10:55:45.654Z,40.25
2017-09-25T10:56:55.630Z,39.76
2017-09-25T10:58:04.680Z,39.76
2017-09-25T10:59:13.376Z,39.86
2017-09-25T11:00:23.351Z,39.76
2017-09-25T11:01:33.007Z,40.25
2017-09-25T11:02:41.704Z,40.05
2017-09-25T11:03:51.043Z,40.05
2017-09-25T11:05:00.699Z,39.69
2017-09-25T11:06:10.037Z,39.59
2017-09-25T11:07:19.695Z,39.39
2017-09-25T11:08:28.393Z,39.2
2017-09-25T11:09:37.410Z,39.2
2017-09-25T11:10:46.751Z,39.12
2017-09-25T11:11:55.765Z,39.12
2017-09-25T11:13:05.422Z,39.12
2017-09-25T11:14:14.119Z,39.32
2017-09-25T11:15:22.816Z,39.03
2017-09-25T11:16:32.333Z,39.59
2017-09-25T11:17:42.034Z,39.11
2017-09-25T11:18:51.370Z,39.29
2017-09-25T11:20:00.066Z,39.2
2017-09-25T11:21:09.081Z,39.59
2017-09-25T11:22:18.099Z,39.59
2017-09-25T11:23:27.118Z,39.69
2017-09-25T11:24:35.812Z,39.78
2017-09-25T11:25:45.792Z,39.59
2017-09-25T11:26:55.123Z,39.57
2017-09-25T11:28:04.141Z,39.57
2017-09-25T11:29:13.478Z,40.05
2017-09-25T11:30:22.494Z,39.95
2017-09-25T11:31:31.510Z,39.57
2017-09-25T11:32:40.845Z,40.15
2017-09-25T11:33:49.861Z,39.86
2017-09-25T11:34:59.837Z,39.86
2017-09-25T11:36:09.178Z,40.25
2017-09-25T11:37:18.888Z,40.05
2017-09-25T11:38:27.904Z,39.76
2017-09-25T11:39:37.238Z,39.95
2017-09-25T11:40:46.575Z,40.05
2017-09-25T11:41:55.916Z,39.86
2017-09-25T11:43:05.895Z,40.05
2017-09-25T11:44:15.238Z,40.25
2017-09-25T11:45:24.574Z,40.05
2017-09-25T11:46:33.914Z,39.95
2017-09-25T11:47:42.935Z,39.86
2017-09-25T11:48:51.952Z,40.25
2017-09-25T11:50:00.649Z,39.95
2017-09-25T11:51:09.342Z,39.86
2017-09-25T11:52:19.321Z,39.86
2017-09-25T11:53:28.662Z,39.95
2017-09-25T11:54:37.996Z,39.76
2017-09-25T11:55:47.014Z,39.86
2017-09-25T11:56:55.710Z,39.86
2017-09-25T11:58:05.046Z,39.95
2017-09-25T11:59:14.384Z,39.76
2017-09-25T12:00:23.720Z,40.05
2017-09-25T12:01:32.733Z,40.44
2017-09-25T12:02:42.710Z,40.44
2017-09-25T12:03:52.077Z,39.95
2017-09-25T12:05:01.739Z,40.05
2017-09-25T12:06:10.760Z,40.05
2017-09-25T12:07:19.459Z,40.73
2017-09-25T12:08:28.481Z,40.53
2017-09-25T12:09:37.492Z,39.95
2017-09-25T12:10:46.510Z,40.44
2017-09-25T12:11:56.167Z,39.86
2017-09-25T12:13:04.866Z,40.05
2017-09-25T12:14:13.882Z,39.95
2017-09-25T12:15:23.220Z,39.76
2017-09-25T12:16:32.237Z,39.76
2017-09-25T12:17:41.253Z,39.95
2017-09-25T12:18:50.587Z,39.86
2017-09-25T12:19:59.287Z,39.86
2017-09-25T12:21:08.623Z,40.05
2017-09-25T12:22:17.957Z,39.86
2017-09-25T12:23:27.298Z,40.44
2017-09-25T12:24:35.993Z,40.44
2017-09-25T12:25:44.687Z,39.95
2017-09-25T12:26:54.023Z,39.86
2017-09-25T12:28:02.720Z,39.86
2017-09-25T12:29:11.737Z,40.25
2017-09-25T12:30:20.753Z,40.15
2017-09-25T12:31:30.124Z,40.15
2017-09-25T12:32:39.469Z,39.95
2017-09-25T12:33:48.804Z,39.76
2017-09-25T12:34:58.141Z,39.76
2017-09-25T12:36:07.806Z,39.95
2017-09-25T12:37:16.501Z,39.76
2017-09-25T12:38:25.200Z,39.86
2017-09-25T12:39:34.217Z,39.59
2017-09-25T12:40:43.239Z,39.78
2017-09-25T12:41:51.934Z,39.59
2017-09-25T12:43:01.598Z,39.69
2017-09-25T12:44:10.296Z,39.69
2017-09-25T12:45:19.316Z,39.88
2017-09-25T12:46:28.012Z,39.69
2017-09-25T12:47:37.348Z,39.88
2017-09-25T12:48:46.375Z,39.59
2017-09-25T12:49:55.707Z,39.39
2017-09-25T12:51:04.405Z,39.49
2017-09-25T12:52:13.425Z,39.59
2017-09-25T12:53:22.444Z,39.39
2017-09-25T12:54:31.462Z,39.49
2017-09-25T12:55:40.158Z,39.49
2017-09-25T12:56:49.499Z,39.39
2017-09-25T12:57:59.160Z,39.29
2017-09-25T12:59:08.177Z,39.2
2017-09-25T13:00:16.872Z,39.29
2017-09-25T13:01:25.570Z,39.11
2017-09-25T13:02:34.268Z,39.59
2017-09-25T13:03:43.287Z,39.49
2017-09-25T13:04:53.586Z,39.49
2017-09-25T13:06:02.285Z,39.88
2017-09-25T13:07:10.988Z,39.88
2017-09-25T13:08:20.005Z,39.78
2017-09-25T13:09:29.353Z,39.59
2017-09-25T13:10:38.691Z,39.59
2017-09-25T13:11:47.705Z,40.05
2017-09-25T13:12:57.054Z,39.95
2017-09-25T13:14:06.393Z,40.05
2017-09-25T13:15:15.411Z,40.05
2017-09-25T13:16:25.092Z,39.67
2017-09-25T13:17:34.119Z,39.76
2017-09-25T13:18:43.458Z,39.95
2017-09-25T13:19:52.792Z,39.95
2017-09-25T13:21:01.809Z,39.86
2017-09-25T13:22:11.149Z,39.95
2017-09-25T13:23:20.811Z,40.53
2017-09-25T13:24:29.829Z,39.76
2017-09-25T13:25:38.845Z,39.95
2017-09-25T13:26:47.541Z,40.44
2017-09-25T13:27:56.560Z,40.15
2017-09-25T13:29:06.214Z,40.83
2017-09-25T13:30:14.911Z,40.83
2017-09-25T13:31:23.927Z,40.44
2017-09-25T13:32:33.269Z,40.73
2017-09-25T13:33:43.243Z,40.63
2017-09-25T13:34:52.262Z,41.21
2017-09-25T13:36:00.959Z,41.02
2017-09-25T13:37:09.972Z,40.44
2017-09-25T13:38:19.632Z,41.02
2017-09-25T13:39:28.969Z,41.21
2017-09-25T13:40:38.945Z,40.53
2017-09-25T13:41:48.277Z,41.02
2017-09-25T13:42:57.294Z,40.63
2017-09-25T13:44:06.317Z,40.73
2017-09-25T13:45:15.975Z,40.25
2017-09-25T13:46:24.992Z,41.02
2017-09-25T13:47:34.009Z,40.44
2017-09-25T13:48:43.023Z,40.53
2017-09-25T13:49:52.361Z,40.92
2017-09-25T13:51:01.376Z,40.44
2017-09-25T13:52:10.393Z,40.44
2017-09-25T13:53:19.729Z,40.63
2017-09-25T13:54:28.746Z,40.34
2017-09-25T13:55:38.085Z,40.83
2017-09-25T13:56:47.738Z,40.63
2017-09-25T13:57:56.434Z,40.53
2017-09-25T14:02:54.904Z,40.61
2017-09-25T14:04:04.568Z,40.42
2017-09-25T14:05:13.596Z,40.42
2017-09-25T14:06:22.940Z,40.53
2017-09-25T14:07:32.595Z,40.83
2017-09-25T14:08:41.609Z,40.83
2017-09-25T14:09:50.626Z,40.61
2017-09-25T14:10:59.640Z,40.71
2017-09-25T14:12:09.650Z,40.83
2017-09-25T14:13:18.665Z,41.29
2017-09-25T14:14:28.658Z,41.39
2017-09-25T14:15:37.995Z,40.9
2017-09-25T14:16:47.651Z,40.9
2017-09-25T14:17:56.987Z,40.9
2017-09-25T14:19:06.321Z,41.29
2017-09-25T14:20:16.302Z,41.09
2017-09-25T14:21:25.322Z,41.48
2017-09-25T14:22:34.016Z,41.29
2017-09-25T14:23:43.306Z,41
2017-09-25T14:24:52.952Z,41.39
2017-09-25T14:26:02.483Z,41.58
2017-09-25T14:27:11.500Z,41.29
2017-09-25T14:28:20.843Z,41.67
2017-09-25T14:29:30.501Z,41.48
2017-09-25T14:30:39.524Z,41.58
2017-09-25T14:31:48.541Z,41.58
2017-09-25T14:32:57.877Z,41.48
2017-09-25T14:34:07.216Z,41.48
2017-09-25T14:35:16.869Z,41.58
2017-09-25T14:36:25.569Z,41.58
2017-09-25T14:37:34.588Z,41.48
2017-09-25T14:38:43.610Z,41.48
2017-09-25T14:39:52.952Z,41.87
2017-09-25T14:41:01.975Z,41.48
2017-09-25T14:42:11.329Z,41.39
2017-09-25T14:43:21.002Z,41.58
2017-09-25T14:44:29.707Z,41.39
2017-09-25T14:45:38.730Z,41.29
2017-09-25T14:46:48.072Z,41.29
2017-09-25T14:47:57.730Z,41.97
2017-09-25T14:49:07.386Z,41.97
2017-09-25T14:50:17.041Z,41.29
2017-09-25T14:51:26.067Z,41.29
2017-09-25T14:52:35.728Z,41.39
2017-09-25T14:53:45.065Z,41.97
2017-09-25T14:54:54.083Z,41.97